sensor_id;sensor_type;location;lat;lon;timestamp;P1;durP1;ratioP1;P2;durP2;ratioP2
75823;SDS011;64457;51.976;9.834;2023-06-26T00:01:02;22.83;;;8.77;;
75823;SDS011;64457;51.976;9.834;2023-06-26T00:03:30;16.73;;;8.10;;
75823;SDS011;64457;51.976;9.834;2023-06-26T00:05:59;13.40;;;7.57;;
75823;SDS011;64457;51.976;9.834;2023-06-26T00:08:27;11.67;;;7.17;;
75823;SDS011;64457;51.976;9.834;2023-06-26T00:10:56;10.93;;;6.63;;
75823;SDS011;64457;51.976;9.834;2023-06-26T00:13:25;12.77;;;7.13;;
75823;SDS011;64457;51.976;9.834;2023-06-26T00:15:54;13.37;;;6.50;;
75823;SDS011;64457;51.976;9.834;2023-06-26T00:18:21;12.67;;;7.80;;
75823;SDS011;64457;51.976;9.834;2023-06-26T00:20:49;14.13;;;7.57;;
75823;SDS011;64457;51.976;9.834;2023-06-26T00:23:17;13.60;;;7.50;;
75823;SDS011;64457;51.976;9.834;2023-06-26T00:25:46;15.07;;;7.40;;
75823;SDS011;64457;51.976;9.834;2023-06-26T00:28:15;12.93;;;7.27;;
75823;SDS011;64457;51.976;9.834;2023-06-26T00:30:43;13.13;;;7.60;;
75823;SDS011;64457;51.976;9.834;2023-06-26T00:33:12;16.53;;;8.67;;
75823;SDS011;64457;51.976;9.834;2023-06-26T00:35:43;17.83;;;8.00;;
75823;SDS011;64457;51.976;9.834;2023-06-26T00:38:11;15.97;;;7.80;;
75823;SDS011;64457;51.976;9.834;2023-06-26T00:40:38;13.83;;;7.33;;
75823;SDS011;64457;51.976;9.834;2023-06-26T00:43:06;16.23;;;8.03;;
75823;SDS011;64457;51.976;9.834;2023-06-26T00:45:35;13.90;;;7.70;;
75823;SDS011;64457;51.976;9.834;2023-06-26T00:48:04;14.40;;;7.37;;
75823;SDS011;64457;51.976;9.834;2023-06-26T00:50:35;12.37;;;6.77;;
75823;SDS011;64457;51.976;9.834;2023-06-26T00:53:04;13.20;;;6.83;;
75823;SDS011;64457;51.976;9.834;2023-06-26T00:55:32;12.00;;;5.90;;
75823;SDS011;64457;51.976;9.834;2023-06-26T00:58:00;11.50;;;5.80;;
75823;SDS011;64457;51.976;9.834;2023-06-26T01:00:27;14.20;;;6.40;;
75823;SDS011;64457;51.976;9.834;2023-06-26T01:02:57;12.07;;;6.63;;
75823;SDS011;64457;51.976;9.834;2023-06-26T01:05:26;15.43;;;6.30;;
75823;SDS011;64457;51.976;9.834;2023-06-26T01:07:54;12.70;;;6.23;;
75823;SDS011;64457;51.976;9.834;2023-06-26T01:10:23;9.60;;;5.90;;
75823;SDS011;64457;51.976;9.834;2023-06-26T01:12:53;11.10;;;6.50;;
75823;SDS011;64457;51.976;9.834;2023-06-26T01:15:20;11.73;;;6.20;;
75823;SDS011;64457;51.976;9.834;2023-06-26T01:17:48;14.30;;;5.83;;
75823;SDS011;64457;51.976;9.834;2023-06-26T01:20:19;11.57;;;5.03;;
75823;SDS011;64457;51.976;9.834;2023-06-26T01:22:48;17.40;;;6.40;;
75823;SDS011;64457;51.976;9.834;2023-06-26T01:25:32;13.03;;;6.13;;
75823;SDS011;64457;51.976;9.834;2023-06-26T01:28:10;13.03;;;6.23;;
75823;SDS011;64457;51.976;9.834;2023-06-26T01:30:41;11.23;;;6.40;;
75823;SDS011;64457;51.976;9.834;2023-06-26T01:33:09;12.43;;;6.23;;
75823;SDS011;64457;51.976;9.834;2023-06-26T01:35:39;10.57;;;6.30;;
75823;SDS011;64457;51.976;9.834;2023-06-26T01:38:12;10.50;;;6.27;;
75823;SDS011;64457;51.976;9.834;2023-06-26T01:40:42;11.60;;;6.20;;
75823;SDS011;64457;51.976;9.834;2023-06-26T01:46:09;10.50;;;5.60;;
75823;SDS011;64457;51.976;9.834;2023-06-26T01:48:46;11.10;;;5.90;;
75823;SDS011;64457;51.976;9.834;2023-06-26T01:51:23;12.40;;;5.93;;
75823;SDS011;64457;51.976;9.834;2023-06-26T01:53:58;12.57;;;6.00;;
75823;SDS011;64457;51.976;9.834;2023-06-26T01:56:27;11.33;;;6.23;;
75823;SDS011;64457;51.976;9.834;2023-06-26T01:58:57;11.70;;;5.97;;
75823;SDS011;64457;51.976;9.834;2023-06-26T02:01:27;9.23;;;5.73;;
75823;SDS011;64457;51.976;9.834;2023-06-26T02:03:56;11.60;;;6.43;;
75823;SDS011;64457;51.976;9.834;2023-06-26T02:06:24;16.10;;;6.93;;
75823;SDS011;64457;51.976;9.834;2023-06-26T02:08:51;11.73;;;6.10;;
75823;SDS011;64457;51.976;9.834;2023-06-26T02:11:21;11.17;;;6.27;;
75823;SDS011;64457;51.976;9.834;2023-06-26T02:13:49;12.90;;;6.10;;
75823;SDS011;64457;51.976;9.834;2023-06-26T02:16:19;12.80;;;6.93;;
75823;SDS011;64457;51.976;9.834;2023-06-26T02:18:47;14.17;;;6.27;;
75823;SDS011;64457;51.976;9.834;2023-06-26T02:21:14;9.80;;;5.63;;
75823;SDS011;64457;51.976;9.834;2023-06-26T02:23:42;9.40;;;5.60;;
75823;SDS011;64457;51.976;9.834;2023-06-26T02:26:10;12.23;;;5.97;;
75823;SDS011;64457;51.976;9.834;2023-06-26T02:28:38;10.20;;;6.20;;
75823;SDS011;64457;51.976;9.834;2023-06-26T02:31:06;11.47;;;5.83;;
75823;SDS011;64457;51.976;9.834;2023-06-26T02:33:35;10.90;;;5.83;;
75823;SDS011;64457;51.976;9.834;2023-06-26T02:36:04;14.90;;;6.70;;
75823;SDS011;64457;51.976;9.834;2023-06-26T02:38:33;13.40;;;6.10;;
75823;SDS011;64457;51.976;9.834;2023-06-26T02:41:02;11.87;;;6.50;;
75823;SDS011;64457;51.976;9.834;2023-06-26T02:43:29;13.23;;;6.37;;
75823;SDS011;64457;51.976;9.834;2023-06-26T02:45:57;10.13;;;5.80;;
75823;SDS011;64457;51.976;9.834;2023-06-26T02:48:25;10.50;;;6.20;;
75823;SDS011;64457;51.976;9.834;2023-06-26T02:50:54;11.37;;;6.27;;
75823;SDS011;64457;51.976;9.834;2023-06-26T02:53:22;10.90;;;6.60;;
75823;SDS011;64457;51.976;9.834;2023-06-26T02:55:50;12.40;;;6.50;;
75823;SDS011;64457;51.976;9.834;2023-06-26T02:58:18;11.87;;;6.07;;
75823;SDS011;64457;51.976;9.834;2023-06-26T03:00:46;11.20;;;6.37;;
75823;SDS011;64457;51.976;9.834;2023-06-26T03:03:13;8.90;;;5.77;;
75823;SDS011;64457;51.976;9.834;2023-06-26T03:05:41;11.37;;;6.77;;
75823;SDS011;64457;51.976;9.834;2023-06-26T03:08:10;11.20;;;6.17;;
75823;SDS011;64457;51.976;9.834;2023-06-26T03:10:38;10.60;;;6.00;;
75823;SDS011;64457;51.976;9.834;2023-06-26T03:13:05;12.43;;;5.90;;
75823;SDS011;64457;51.976;9.834;2023-06-26T03:15:34;12.40;;;6.10;;
75823;SDS011;64457;51.976;9.834;2023-06-26T03:18:02;11.70;;;5.90;;
75823;SDS011;64457;51.976;9.834;2023-06-26T03:20:29;11.93;;;6.33;;
75823;SDS011;64457;51.976;9.834;2023-06-26T03:22:58;12.73;;;5.30;;
75823;SDS011;64457;51.976;9.834;2023-06-26T03:25:27;10.30;;;5.37;;
75823;SDS011;64457;51.976;9.834;2023-06-26T03:27:55;15.70;;;6.37;;
75823;SDS011;64457;51.976;9.834;2023-06-26T03:30:22;13.63;;;6.27;;
75823;SDS011;64457;51.976;9.834;2023-06-26T03:32:50;13.20;;;6.57;;
75823;SDS011;64457;51.976;9.834;2023-06-26T03:35:18;10.67;;;5.90;;
75823;SDS011;64457;51.976;9.834;2023-06-26T03:37:46;13.77;;;5.80;;
75823;SDS011;64457;51.976;9.834;2023-06-26T03:40:15;11.73;;;5.67;;
75823;SDS011;64457;51.976;9.834;2023-06-26T03:42:44;12.03;;;6.00;;
75823;SDS011;64457;51.976;9.834;2023-06-26T03:45:12;10.80;;;6.00;;
75823;SDS011;64457;51.976;9.834;2023-06-26T03:47:39;13.10;;;6.07;;
75823;SDS011;64457;51.976;9.834;2023-06-26T03:50:07;12.90;;;6.10;;
75823;SDS011;64457;51.976;9.834;2023-06-26T03:52:36;11.07;;;5.80;;
75823;SDS011;64457;51.976;9.834;2023-06-26T03:55:04;9.80;;;5.67;;
75823;SDS011;64457;51.976;9.834;2023-06-26T03:57:32;11.10;;;5.53;;
75823;SDS011;64457;51.976;9.834;2023-06-26T04:00:02;10.80;;;5.80;;
75823;SDS011;64457;51.976;9.834;2023-06-26T04:02:34;9.90;;;5.47;;
75823;SDS011;64457;51.976;9.834;2023-06-26T04:05:02;12.67;;;5.40;;
75823;SDS011;64457;51.976;9.834;2023-06-26T04:07:30;10.73;;;5.40;;
75823;SDS011;64457;51.976;9.834;2023-06-26T04:09:57;9.30;;;5.50;;
75823;SDS011;64457;51.976;9.834;2023-06-26T04:12:27;10.43;;;5.30;;
75823;SDS011;64457;51.976;9.834;2023-06-26T04:14:56;8.90;;;5.10;;
75823;SDS011;64457;51.976;9.834;2023-06-26T04:17:25;10.70;;;5.50;;
75823;SDS011;64457;51.976;9.834;2023-06-26T04:19:53;12.30;;;5.73;;
75823;SDS011;64457;51.976;9.834;2023-06-26T04:22:20;10.00;;;4.97;;
75823;SDS011;64457;51.976;9.834;2023-06-26T04:24:48;9.13;;;5.33;;
75823;SDS011;64457;51.976;9.834;2023-06-26T04:27:17;8.80;;;5.10;;
75823;SDS011;64457;51.976;9.834;2023-06-26T04:29:45;10.90;;;5.50;;
75823;SDS011;64457;51.976;9.834;2023-06-26T04:32:13;13.37;;;5.33;;
75823;SDS011;64457;51.976;9.834;2023-06-26T04:34:42;9.20;;;5.47;;
75823;SDS011;64457;51.976;9.834;2023-06-26T04:37:09;10.30;;;5.17;;
75823;SDS011;64457;51.976;9.834;2023-06-26T04:39:41;10.33;;;4.80;;
75823;SDS011;64457;51.976;9.834;2023-06-26T04:42:09;9.10;;;5.13;;
75823;SDS011;64457;51.976;9.834;2023-06-26T04:44:38;9.07;;;5.37;;
75823;SDS011;64457;51.976;9.834;2023-06-26T04:47:07;9.80;;;5.40;;
75823;SDS011;64457;51.976;9.834;2023-06-26T04:49:41;14.53;;;5.40;;
75823;SDS011;64457;51.976;9.834;2023-06-26T04:52:11;13.30;;;5.43;;
75823;SDS011;64457;51.976;9.834;2023-06-26T04:54:39;8.87;;;5.20;;
75823;SDS011;64457;51.976;9.834;2023-06-26T04:57:08;9.70;;;5.17;;
75823;SDS011;64457;51.976;9.834;2023-06-26T04:59:37;10.47;;;5.10;;
75823;SDS011;64457;51.976;9.834;2023-06-26T05:02:05;9.07;;;5.10;;
75823;SDS011;64457;51.976;9.834;2023-06-26T05:04:33;9.50;;;5.50;;
75823;SDS011;64457;51.976;9.834;2023-06-26T05:07:05;10.40;;;4.83;;
75823;SDS011;64457;51.976;9.834;2023-06-26T05:09:32;15.20;;;5.87;;
75823;SDS011;64457;51.976;9.834;2023-06-26T05:12:00;11.60;;;5.87;;
75823;SDS011;64457;51.976;9.834;2023-06-26T05:14:29;10.40;;;4.80;;
75823;SDS011;64457;51.976;9.834;2023-06-26T05:16:58;10.90;;;5.23;;
75823;SDS011;64457;51.976;9.834;2023-06-26T05:19:25;14.93;;;5.83;;
75823;SDS011;64457;51.976;9.834;2023-06-26T05:21:53;12.20;;;4.80;;
75823;SDS011;64457;51.976;9.834;2023-06-26T05:24:24;10.43;;;5.37;;
75823;SDS011;64457;51.976;9.834;2023-06-26T05:26:52;9.47;;;4.70;;
75823;SDS011;64457;51.976;9.834;2023-06-26T05:29:20;7.80;;;4.33;;
75823;SDS011;64457;51.976;9.834;2023-06-26T05:31:48;9.07;;;4.40;;
75823;SDS011;64457;51.976;9.834;2023-06-26T05:34:18;9.23;;;4.80;;
75823;SDS011;64457;51.976;9.834;2023-06-26T05:36:50;25.43;;;5.97;;
75823;SDS011;64457;51.976;9.834;2023-06-26T05:39:20;12.43;;;5.03;;
75823;SDS011;64457;51.976;9.834;2023-06-26T05:41:52;8.63;;;4.80;;
75823;SDS011;64457;51.976;9.834;2023-06-26T05:44:21;9.50;;;5.07;;
75823;SDS011;64457;51.976;9.834;2023-06-26T05:46:49;13.83;;;4.60;;
75823;SDS011;64457;51.976;9.834;2023-06-26T05:49:16;8.00;;;4.50;;
75823;SDS011;64457;51.976;9.834;2023-06-26T05:51:44;15.63;;;4.20;;
75823;SDS011;64457;51.976;9.834;2023-06-26T05:54:12;8.17;;;4.10;;
75823;SDS011;64457;51.976;9.834;2023-06-26T05:56:41;6.80;;;3.83;;
75823;SDS011;64457;51.976;9.834;2023-06-26T05:59:11;10.67;;;4.70;;
75823;SDS011;64457;51.976;9.834;2023-06-26T06:01:42;7.70;;;4.27;;
75823;SDS011;64457;51.976;9.834;2023-06-26T06:04:10;9.10;;;4.20;;
75823;SDS011;64457;51.976;9.834;2023-06-26T06:06:38;6.23;;;3.80;;
75823;SDS011;64457;51.976;9.834;2023-06-26T06:09:06;10.83;;;3.87;;
75823;SDS011;64457;51.976;9.834;2023-06-26T06:11:34;26.50;;;9.43;;
75823;SDS011;64457;51.976;9.834;2023-06-26T06:14:02;14.73;;;5.73;;
75823;SDS011;64457;51.976;9.834;2023-06-26T06:16:31;10.13;;;4.60;;
75823;SDS011;64457;51.976;9.834;2023-06-26T06:18:59;8.73;;;4.00;;
75823;SDS011;64457;51.976;9.834;2023-06-26T06:21:28;6.33;;;3.80;;
75823;SDS011;64457;51.976;9.834;2023-06-26T06:23:56;11.03;;;4.43;;
75823;SDS011;64457;51.976;9.834;2023-06-26T06:26:24;9.17;;;4.53;;
75823;SDS011;64457;51.976;9.834;2023-06-26T06:28:51;16.40;;;4.70;;
75823;SDS011;64457;51.976;9.834;2023-06-26T06:31:19;17.33;;;5.17;;
75823;SDS011;64457;51.976;9.834;2023-06-26T06:33:48;13.50;;;4.93;;
75823;SDS011;64457;51.976;9.834;2023-06-26T06:36:16;7.97;;;3.80;;
75823;SDS011;64457;51.976;9.834;2023-06-26T06:38:43;6.37;;;3.70;;
75823;SDS011;64457;51.976;9.834;2023-06-26T06:41:11;8.50;;;3.60;;
75823;SDS011;64457;51.976;9.834;2023-06-26T06:43:40;6.67;;;3.80;;
75823;SDS011;64457;51.976;9.834;2023-06-26T06:46:08;7.27;;;3.57;;
75823;SDS011;64457;51.976;9.834;2023-06-26T06:48:36;5.90;;;3.73;;
75823;SDS011;64457;51.976;9.834;2023-06-26T06:51:05;6.17;;;3.30;;
75823;SDS011;64457;51.976;9.834;2023-06-26T06:53:33;5.80;;;3.60;;
75823;SDS011;64457;51.976;9.834;2023-06-26T06:56:01;6.37;;;3.87;;
75823;SDS011;64457;51.976;9.834;2023-06-26T06:58:28;5.00;;;3.60;;
75823;SDS011;64457;51.976;9.834;2023-06-26T07:00:59;6.90;;;3.80;;
75823;SDS011;64457;51.976;9.834;2023-06-26T07:03:28;5.37;;;3.80;;
75823;SDS011;64457;51.976;9.834;2023-06-26T07:05:55;8.60;;;3.80;;
75823;SDS011;64457;51.976;9.834;2023-06-26T07:08:25;8.40;;;3.40;;
75823;SDS011;64457;51.976;9.834;2023-06-26T07:10:52;5.03;;;3.67;;
75823;SDS011;64457;51.976;9.834;2023-06-26T07:13:23;4.43;;;3.37;;
75823;SDS011;64457;51.976;9.834;2023-06-26T07:15:50;5.80;;;3.40;;
75823;SDS011;64457;51.976;9.834;2023-06-26T07:18:18;7.40;;;3.20;;
75823;SDS011;64457;51.976;9.834;2023-06-26T07:20:46;4.37;;;3.20;;
75823;SDS011;64457;51.976;9.834;2023-06-26T07:23:14;8.70;;;3.03;;
75823;SDS011;64457;51.976;9.834;2023-06-26T07:25:43;3.50;;;2.90;;
75823;SDS011;64457;51.976;9.834;2023-06-26T07:28:11;7.93;;;3.13;;
75823;SDS011;64457;51.976;9.834;2023-06-26T07:30:39;4.83;;;3.10;;
75823;SDS011;64457;51.976;9.834;2023-06-26T07:33:07;5.70;;;3.00;;
75823;SDS011;64457;51.976;9.834;2023-06-26T07:35:35;5.33;;;3.43;;
75823;SDS011;64457;51.976;9.834;2023-06-26T07:38:02;5.10;;;3.00;;
75823;SDS011;64457;51.976;9.834;2023-06-26T07:40:31;4.97;;;3.23;;
75823;SDS011;64457;51.976;9.834;2023-06-26T07:43:00;3.40;;;2.90;;
75823;SDS011;64457;51.976;9.834;2023-06-26T07:45:28;6.23;;;3.40;;
75823;SDS011;64457;51.976;9.834;2023-06-26T07:47:56;8.83;;;3.43;;
75823;SDS011;64457;51.976;9.834;2023-06-26T07:50:23;4.03;;;2.80;;
75823;SDS011;64457;51.976;9.834;2023-06-26T07:52:51;5.27;;;3.10;;
75823;SDS011;64457;51.976;9.834;2023-06-26T07:55:19;4.07;;;3.10;;
75823;SDS011;64457;51.976;9.834;2023-06-26T07:57:47;8.23;;;3.00;;
75823;SDS011;64457;51.976;9.834;2023-06-26T08:00:21;9.87;;;4.07;;
75823;SDS011;64457;51.976;9.834;2023-06-26T08:02:49;3.83;;;3.23;;
75823;SDS011;64457;51.976;9.834;2023-06-26T08:05:16;3.87;;;3.20;;
75823;SDS011;64457;51.976;9.834;2023-06-26T08:07:46;3.23;;;2.90;;
75823;SDS011;64457;51.976;9.834;2023-06-26T08:10:13;3.20;;;2.90;;
75823;SDS011;64457;51.976;9.834;2023-06-26T08:12:42;4.07;;;2.90;;
75823;SDS011;64457;51.976;9.834;2023-06-26T08:15:10;5.15;;;2.90;;
75823;SDS011;64457;51.976;9.834;2023-06-26T08:17:40;7.22;;;3.08;;
75823;SDS011;64457;51.976;9.834;2023-06-26T08:20:08;4.20;;;3.17;;
75823;SDS011;64457;51.976;9.834;2023-06-26T08:22:37;5.22;;;2.92;;
75823;SDS011;64457;51.976;9.834;2023-06-26T08:25:05;5.22;;;3.42;;
75823;SDS011;64457;51.976;9.834;2023-06-26T08:27:34;10.30;;;2.97;;
75823;SDS011;64457;51.976;9.834;2023-06-26T08:30:02;3.28;;;2.97;;
75823;SDS011;64457;51.976;9.834;2023-06-26T08:32:31;3.30;;;3.00;;
75823;SDS011;64457;51.976;9.834;2023-06-26T08:35:01;4.43;;;3.17;;
75823;SDS011;64457;51.976;9.834;2023-06-26T08:37:28;6.70;;;4.50;;
75823;SDS011;64457;51.976;9.834;2023-06-26T08:39:57;4.63;;;3.90;;
75823;SDS011;64457;51.976;9.834;2023-06-26T08:42:26;5.63;;;3.67;;
75823;SDS011;64457;51.976;9.834;2023-06-26T08:44:53;3.80;;;3.10;;
75823;SDS011;64457;51.976;9.834;2023-06-26T08:47:24;6.20;;;3.17;;
75823;SDS011;64457;51.976;9.834;2023-06-26T08:49:55;4.53;;;3.47;;
75823;SDS011;64457;51.976;9.834;2023-06-26T08:52:33;3.60;;;3.30;;
75823;SDS011;64457;51.976;9.834;2023-06-26T08:55:06;5.43;;;3.37;;
75823;SDS011;64457;51.976;9.834;2023-06-26T08:57:37;8.53;;;3.77;;
75823;SDS011;64457;51.976;9.834;2023-06-26T09:00:06;6.77;;;3.83;;
75823;SDS011;64457;51.976;9.834;2023-06-26T09:02:35;6.40;;;3.53;;
75823;SDS011;64457;51.976;9.834;2023-06-26T09:05:05;5.87;;;3.73;;
75823;SDS011;64457;51.976;9.834;2023-06-26T09:07:34;5.90;;;4.03;;
75823;SDS011;64457;51.976;9.834;2023-06-26T09:10:02;8.33;;;4.30;;
75823;SDS011;64457;51.976;9.834;2023-06-26T09:12:31;6.93;;;4.33;;
75823;SDS011;64457;51.976;9.834;2023-06-26T09:15:00;5.77;;;4.50;;
75823;SDS011;64457;51.976;9.834;2023-06-26T09:17:29;5.40;;;4.33;;
75823;SDS011;64457;51.976;9.834;2023-06-26T09:20:01;6.93;;;4.87;;
75823;SDS011;64457;51.976;9.834;2023-06-26T09:22:32;9.20;;;5.50;;
75823;SDS011;64457;51.976;9.834;2023-06-26T09:25:04;6.77;;;5.37;;
75823;SDS011;64457;51.976;9.834;2023-06-26T09:27:34;7.80;;;5.80;;
75823;SDS011;64457;51.976;9.834;2023-06-26T09:30:04;7.17;;;5.03;;
75823;SDS011;64457;51.976;9.834;2023-06-26T09:32:34;7.93;;;5.87;;
75823;SDS011;64457;51.976;9.834;2023-06-26T09:35:03;9.93;;;5.90;;
75823;SDS011;64457;51.976;9.834;2023-06-26T09:37:35;10.73;;;6.07;;
75823;SDS011;64457;51.976;9.834;2023-06-26T09:40:03;10.67;;;6.10;;
75823;SDS011;64457;51.976;9.834;2023-06-26T09:42:33;11.07;;;6.80;;
75823;SDS011;64457;51.976;9.834;2023-06-26T09:45:01;8.37;;;5.80;;
75823;SDS011;64457;51.976;9.834;2023-06-26T09:47:30;12.20;;;6.37;;
75823;SDS011;64457;51.976;9.834;2023-06-26T09:50:02;9.30;;;6.17;;
75823;SDS011;64457;51.976;9.834;2023-06-26T09:52:31;11.10;;;6.53;;
75823;SDS011;64457;51.976;9.834;2023-06-26T09:55:09;15.93;;;6.20;;
75823;SDS011;64457;51.976;9.834;2023-06-26T09:57:38;9.67;;;6.70;;
75823;SDS011;64457;51.976;9.834;2023-06-26T10:00:07;8.43;;;5.83;;
75823;SDS011;64457;51.976;9.834;2023-06-26T10:02:37;7.40;;;5.43;;
75823;SDS011;64457;51.976;9.834;2023-06-26T10:05:08;12.80;;;6.33;;
75823;SDS011;64457;51.976;9.834;2023-06-26T10:07:38;11.30;;;6.80;;
75823;SDS011;64457;51.976;9.834;2023-06-26T10:10:07;13.03;;;6.60;;
75823;SDS011;64457;51.976;9.834;2023-06-26T10:12:37;10.70;;;6.40;;
75823;SDS011;64457;51.976;9.834;2023-06-26T10:15:07;11.13;;;6.67;;
75823;SDS011;64457;51.976;9.834;2023-06-26T10:17:39;9.60;;;6.37;;
75823;SDS011;64457;51.976;9.834;2023-06-26T10:20:12;11.40;;;6.17;;
75823;SDS011;64457;51.976;9.834;2023-06-26T10:22:44;12.50;;;5.90;;
75823;SDS011;64457;51.976;9.834;2023-06-26T10:25:14;16.73;;;6.47;;
75823;SDS011;64457;51.976;9.834;2023-06-26T10:27:46;14.47;;;6.70;;
75823;SDS011;64457;51.976;9.834;2023-06-26T10:30:19;10.53;;;6.30;;
75823;SDS011;64457;51.976;9.834;2023-06-26T10:32:54;8.83;;;5.57;;
75823;SDS011;64457;51.976;9.834;2023-06-26T10:35:23;12.47;;;6.50;;
75823;SDS011;64457;51.976;9.834;2023-06-26T10:37:59;13.77;;;7.00;;
75823;SDS011;64457;51.976;9.834;2023-06-26T10:40:39;13.20;;;6.70;;
75823;SDS011;64457;51.976;9.834;2023-06-26T10:43:08;11.00;;;6.30;;
75823;SDS011;64457;51.976;9.834;2023-06-26T10:45:44;18.90;;;6.90;;
75823;SDS011;64457;51.976;9.834;2023-06-26T10:48:17;12.40;;;6.27;;
75823;SDS011;64457;51.976;9.834;2023-06-26T10:50:47;9.00;;;5.60;;
75823;SDS011;64457;51.976;9.834;2023-06-26T10:53:22;15.27;;;6.40;;
75823;SDS011;64457;51.976;9.834;2023-06-26T10:55:55;27.87;;;7.27;;
75823;SDS011;64457;51.976;9.834;2023-06-26T10:58:30;12.00;;;6.77;;
75823;SDS011;64457;51.976;9.834;2023-06-26T11:01:19;14.20;;;7.50;;
75823;SDS011;64457;51.976;9.834;2023-06-26T11:03:49;17.53;;;7.63;;
75823;SDS011;64457;51.976;9.834;2023-06-26T11:06:30;11.07;;;7.50;;
75823;SDS011;64457;51.976;9.834;2023-06-26T11:09:06;15.20;;;7.80;;
75823;SDS011;64457;51.976;9.834;2023-06-26T11:14:34;14.30;;;7.57;;
75823;SDS011;64457;51.976;9.834;2023-06-26T11:17:03;11.83;;;7.33;;
75823;SDS011;64457;51.976;9.834;2023-06-26T11:19:31;13.03;;;6.83;;
75823;SDS011;64457;51.976;9.834;2023-06-26T11:22:01;12.93;;;6.90;;
75823;SDS011;64457;51.976;9.834;2023-06-26T11:24:32;13.70;;;6.73;;
75823;SDS011;64457;51.976;9.834;2023-06-26T11:27:01;15.23;;;7.67;;
75823;SDS011;64457;51.976;9.834;2023-06-26T11:29:31;13.77;;;7.63;;
75823;SDS011;64457;51.976;9.834;2023-06-26T11:32:01;14.60;;;6.90;;
75823;SDS011;64457;51.976;9.834;2023-06-26T11:34:33;17.67;;;7.87;;
75823;SDS011;64457;51.976;9.834;2023-06-26T11:37:03;13.83;;;7.30;;
75823;SDS011;64457;51.976;9.834;2023-06-26T11:39:33;12.93;;;6.90;;
75823;SDS011;64457;51.976;9.834;2023-06-26T11:42:05;14.57;;;7.57;;
75823;SDS011;64457;51.976;9.834;2023-06-26T11:44:39;14.87;;;7.90;;
75823;SDS011;64457;51.976;9.834;2023-06-26T11:47:11;11.33;;;7.23;;
75823;SDS011;64457;51.976;9.834;2023-06-26T11:49:41;14.70;;;6.60;;
75823;SDS011;64457;51.976;9.834;2023-06-26T11:52:11;13.93;;;7.20;;
75823;SDS011;64457;51.976;9.834;2023-06-26T11:54:40;15.70;;;8.07;;
75823;SDS011;64457;51.976;9.834;2023-06-26T11:57:13;13.47;;;6.70;;
75823;SDS011;64457;51.976;9.834;2023-06-26T11:59:42;16.33;;;7.10;;
75823;SDS011;64457;51.976;9.834;2023-06-26T12:02:10;15.20;;;7.00;;
75823;SDS011;64457;51.976;9.834;2023-06-26T12:04:42;13.03;;;7.13;;
75823;SDS011;64457;51.976;9.834;2023-06-26T12:07:10;18.50;;;7.40;;
75823;SDS011;64457;51.976;9.834;2023-06-26T12:09:41;17.43;;;7.20;;
75823;SDS011;64457;51.976;9.834;2023-06-26T12:12:11;20.70;;;7.17;;
75823;SDS011;64457;51.976;9.834;2023-06-26T12:14:42;16.83;;;6.80;;
75823;SDS011;64457;51.976;9.834;2023-06-26T12:17:10;14.60;;;6.70;;
75823;SDS011;64457;51.976;9.834;2023-06-26T12:19:43;13.13;;;6.20;;
75823;SDS011;64457;51.976;9.834;2023-06-26T12:22:13;14.40;;;6.40;;
75823;SDS011;64457;51.976;9.834;2023-06-26T12:24:44;10.77;;;6.57;;
75823;SDS011;64457;51.976;9.834;2023-06-26T12:27:18;15.43;;;6.37;;
75823;SDS011;64457;51.976;9.834;2023-06-26T12:29:50;16.10;;;6.87;;
75823;SDS011;64457;51.976;9.834;2023-06-26T12:32:21;12.47;;;6.00;;
75823;SDS011;64457;51.976;9.834;2023-06-26T12:34:55;16.60;;;6.20;;
75823;SDS011;64457;51.976;9.834;2023-06-26T12:37:26;12.23;;;6.00;;
75823;SDS011;64457;51.976;9.834;2023-06-26T12:39:58;16.70;;;7.07;;
75823;SDS011;64457;51.976;9.834;2023-06-26T12:42:32;12.27;;;6.97;;
75823;SDS011;64457;51.976;9.834;2023-06-26T12:45:10;12.10;;;6.83;;
75823;SDS011;64457;51.976;9.834;2023-06-26T12:47:39;14.80;;;6.33;;
75823;SDS011;64457;51.976;9.834;2023-06-26T12:50:09;11.50;;;5.70;;
75823;SDS011;64457;51.976;9.834;2023-06-26T12:52:40;13.10;;;6.67;;
75823;SDS011;64457;51.976;9.834;2023-06-26T12:55:14;17.37;;;7.13;;
75823;SDS011;64457;51.976;9.834;2023-06-26T12:57:44;13.80;;;5.83;;
75823;SDS011;64457;51.976;9.834;2023-06-26T13:00:14;12.80;;;6.00;;
75823;SDS011;64457;51.976;9.834;2023-06-26T13:02:44;13.97;;;5.17;;
75823;SDS011;64457;51.976;9.834;2023-06-26T13:05:12;13.00;;;4.90;;
75823;SDS011;64457;51.976;9.834;2023-06-26T13:07:41;10.93;;;5.47;;
75823;SDS011;64457;51.976;9.834;2023-06-26T13:10:09;11.07;;;5.57;;
75823;SDS011;64457;51.976;9.834;2023-06-26T13:12:39;14.37;;;5.80;;
75823;SDS011;64457;51.976;9.834;2023-06-26T13:15:09;9.77;;;5.50;;
75823;SDS011;64457;51.976;9.834;2023-06-26T13:17:37;10.83;;;5.30;;
75823;SDS011;64457;51.976;9.834;2023-06-26T13:20:05;10.90;;;4.90;;
75823;SDS011;64457;51.976;9.834;2023-06-26T13:22:44;13.97;;;5.57;;
75823;SDS011;64457;51.976;9.834;2023-06-26T13:25:28;11.20;;;4.70;;
75823;SDS011;64457;51.976;9.834;2023-06-26T13:28:02;12.03;;;4.67;;
75823;SDS011;64457;51.976;9.834;2023-06-26T13:30:31;8.17;;;4.00;;
75823;SDS011;64457;51.976;9.834;2023-06-26T13:32:59;11.43;;;3.70;;
75823;SDS011;64457;51.976;9.834;2023-06-26T13:35:27;8.70;;;3.70;;
75823;SDS011;64457;51.976;9.834;2023-06-26T13:37:58;12.87;;;4.13;;
75823;SDS011;64457;51.976;9.834;2023-06-26T13:40:28;7.30;;;3.60;;
75823;SDS011;64457;51.976;9.834;2023-06-26T13:42:56;7.23;;;3.23;;
75823;SDS011;64457;51.976;9.834;2023-06-26T13:45:26;8.27;;;3.37;;
75823;SDS011;64457;51.976;9.834;2023-06-26T13:47:53;10.20;;;4.00;;
75823;SDS011;64457;51.976;9.834;2023-06-26T13:50:26;8.77;;;3.23;;
75823;SDS011;64457;51.976;9.834;2023-06-26T13:52:55;16.43;;;3.70;;
75823;SDS011;64457;51.976;9.834;2023-06-26T13:55:27;7.77;;;3.73;;
75823;SDS011;64457;51.976;9.834;2023-06-26T13:57:57;7.00;;;3.23;;
75823;SDS011;64457;51.976;9.834;2023-06-26T14:00:34;6.43;;;3.07;;
75823;SDS011;64457;51.976;9.834;2023-06-26T14:03:04;7.87;;;3.03;;
75823;SDS011;64457;51.976;9.834;2023-06-26T14:05:36;7.90;;;2.90;;
75823;SDS011;64457;51.976;9.834;2023-06-26T14:08:07;10.07;;;2.87;;
75823;SDS011;64457;51.976;9.834;2023-06-26T14:10:36;7.17;;;3.13;;
75823;SDS011;64457;51.976;9.834;2023-06-26T14:13:04;5.60;;;2.70;;
75823;SDS011;64457;51.976;9.834;2023-06-26T14:15:35;5.80;;;2.50;;
75823;SDS011;64457;51.976;9.834;2023-06-26T14:18:21;8.10;;;2.87;;
75823;SDS011;64457;51.976;9.834;2023-06-26T14:20:52;5.73;;;2.90;;
75823;SDS011;64457;51.976;9.834;2023-06-26T14:23:23;12.93;;;2.90;;
75823;SDS011;64457;51.976;9.834;2023-06-26T14:25:54;9.57;;;3.27;;
75823;SDS011;64457;51.976;9.834;2023-06-26T14:28:25;7.60;;;2.70;;
75823;SDS011;64457;51.976;9.834;2023-06-26T14:30:54;6.67;;;2.70;;
75823;SDS011;64457;51.976;9.834;2023-06-26T14:33:22;7.07;;;2.80;;
75823;SDS011;64457;51.976;9.834;2023-06-26T14:35:50;5.80;;;2.63;;
75823;SDS011;64457;51.976;9.834;2023-06-26T14:38:20;7.00;;;2.37;;
75823;SDS011;64457;51.976;9.834;2023-06-26T14:40:49;6.57;;;2.50;;
75823;SDS011;64457;51.976;9.834;2023-06-26T14:43:17;6.50;;;2.50;;
75823;SDS011;64457;51.976;9.834;2023-06-26T14:45:46;9.27;;;2.20;;
75823;SDS011;64457;51.976;9.834;2023-06-26T14:48:15;9.63;;;2.70;;
75823;SDS011;64457;51.976;9.834;2023-06-26T14:50:44;5.13;;;2.50;;
75823;SDS011;64457;51.976;9.834;2023-06-26T14:53:12;7.83;;;2.50;;
75823;SDS011;64457;51.976;9.834;2023-06-26T14:55:41;5.70;;;2.50;;
75823;SDS011;64457;51.976;9.834;2023-06-26T14:58:09;6.80;;;2.50;;
75823;SDS011;64457;51.976;9.834;2023-06-26T15:00:38;6.30;;;2.33;;